sensor_id;sensor_type;location;lat;lon;timestamp;P1;durP1;ratioP1;P2;durP2;ratioP2
41221;SDS011;26952;42.884;23.918;2022-08-19T00:00:15;60.15;;;57.10;;
41221;SDS011;26952;42.884;23.918;2022-08-19T00:02:41;62.35;;;59.05;;
41221;SDS011;26952;42.884;23.918;2022-08-19T00:05:06;62.90;;;59.42;;
41221;SDS011;26952;42.884;23.918;2022-08-19T00:07:33;62.20;;;58.92;;
41221;SDS011;26952;42.884;23.918;2022-08-19T00:09:58;59.63;;;56.45;;
41221;SDS011;26952;42.884;23.918;2022-08-19T00:12:24;62.70;;;59.38;;
41221;SDS011;26952;42.884;23.918;2022-08-19T00:14:49;62.20;;;58.85;;
41221;SDS011;26952;42.884;23.918;2022-08-19T00:17:15;59.92;;;56.83;;
41221;SDS011;26952;42.884;23.918;2022-08-19T00:19:40;51.25;;;48.45;;
41221;SDS011;26952;42.884;23.918;2022-08-19T00:22:06;59.72;;;56.38;;
41221;SDS011;26952;42.884;23.918;2022-08-19T00:24:33;51.47;;;48.33;;
41221;SDS011;26952;42.884;23.918;2022-08-19T00:27:00;49.38;;;46.78;;
41221;SDS011;26952;42.884;23.918;2022-08-19T00:29:26;55.45;;;52.28;;
41221;SDS011;26952;42.884;23.918;2022-08-19T00:31:53;45.97;;;43.38;;
41221;SDS011;26952;42.884;23.918;2022-08-19T00:34:20;46.05;;;43.35;;
41221;SDS011;26952;42.884;23.918;2022-08-19T00:36:46;48.90;;;46.17;;
41221;SDS011;26952;42.884;23.918;2022-08-19T00:39:13;48.58;;;45.78;;
41221;SDS011;26952;42.884;23.918;2022-08-19T00:41:40;45.53;;;42.83;;
41221;SDS011;26952;42.884;23.918;2022-08-19T00:44:11;46.58;;;43.72;;
41221;SDS011;26952;42.884;23.918;2022-08-19T00:46:44;44.97;;;42.58;;
41221;SDS011;26952;42.884;23.918;2022-08-19T00:49:18;41.40;;;38.92;;
41221;SDS011;26952;42.884;23.918;2022-08-19T00:51:47;39.35;;;37.15;;
41221;SDS011;26952;42.884;23.918;2022-08-19T00:54:16;41.35;;;39.00;;
41221;SDS011;26952;42.884;23.918;2022-08-19T00:56:42;42.33;;;39.88;;
41221;SDS011;26952;42.884;23.918;2022-08-19T00:59:10;44.90;;;42.20;;
41221;SDS011;26952;42.884;23.918;2022-08-19T01:01:36;47.72;;;45.13;;
41221;SDS011;26952;42.884;23.918;2022-08-19T01:04:03;52.40;;;49.55;;
41221;SDS011;26952;42.884;23.918;2022-08-19T01:06:29;57.60;;;54.45;;
41221;SDS011;26952;42.884;23.918;2022-08-19T01:08:57;62.15;;;58.67;;
41221;SDS011;26952;42.884;23.918;2022-08-19T01:11:23;52.35;;;49.53;;
41221;SDS011;26952;42.884;23.918;2022-08-19T01:13:48;52.10;;;49.25;;
41221;SDS011;26952;42.884;23.918;2022-08-19T01:16:17;43.90;;;41.42;;
41221;SDS011;26952;42.884;23.918;2022-08-19T01:18:45;46.30;;;43.47;;
41221;SDS011;26952;42.884;23.918;2022-08-19T01:21:29;48.03;;;45.33;;
41221;SDS011;26952;42.884;23.918;2022-08-19T01:23:57;48.45;;;45.53;;
41221;SDS011;26952;42.884;23.918;2022-08-19T01:26:24;52.08;;;49.05;;
41221;SDS011;26952;42.884;23.918;2022-08-19T01:28:52;55.15;;;52.13;;
41221;SDS011;26952;42.884;23.918;2022-08-19T01:31:20;78.47;;;74.10;;
41221;SDS011;26952;42.884;23.918;2022-08-19T01:33:48;79.03;;;74.35;;
41221;SDS011;26952;42.884;23.918;2022-08-19T01:37:01;90.47;;;85.45;;
41221;SDS011;26952;42.884;23.918;2022-08-19T01:39:11;88.57;;;83.65;;
41221;SDS011;26952;42.884;23.918;2022-08-19T01:41:40;91.03;;;85.88;;
41221;SDS011;26952;42.884;23.918;2022-08-19T01:44:06;89.90;;;84.82;;
41221;SDS011;26952;42.884;23.918;2022-08-19T01:46:33;86.85;;;82.05;;
41221;SDS011;26952;42.884;23.918;2022-08-19T01:48:59;84.93;;;79.93;;
41221;SDS011;26952;42.884;23.918;2022-08-19T01:51:24;80.07;;;75.72;;
41221;SDS011;26952;42.884;23.918;2022-08-19T01:53:51;80.70;;;76.20;;
41221;SDS011;26952;42.884;23.918;2022-08-19T01:56:16;85.18;;;80.40;;
41221;SDS011;26952;42.884;23.918;2022-08-19T01:58:47;75.57;;;71.32;;
41221;SDS011;26952;42.884;23.918;2022-08-19T02:01:20;75.47;;;71.22;;
41221;SDS011;26952;42.884;23.918;2022-08-19T02:03:46;82.18;;;77.60;;
41221;SDS011;26952;42.884;23.918;2022-08-19T02:06:12;73.70;;;69.60;;
41221;SDS011;26952;42.884;23.918;2022-08-19T02:08:38;81.93;;;77.47;;
41221;SDS011;26952;42.884;23.918;2022-08-19T02:11:05;75.55;;;71.50;;
41221;SDS011;26952;42.884;23.918;2022-08-19T02:13:32;81.45;;;77.03;;
41221;SDS011;26952;42.884;23.918;2022-08-19T02:15:58;79.95;;;75.40;;
41221;SDS011;26952;42.884;23.918;2022-08-19T02:18:24;86.00;;;81.00;;
41221;SDS011;26952;42.884;23.918;2022-08-19T02:20:49;77.10;;;72.88;;
41221;SDS011;26952;42.884;23.918;2022-08-19T02:23:15;72.63;;;68.63;;
41221;SDS011;26952;42.884;23.918;2022-08-19T02:25:42;69.13;;;65.50;;
41221;SDS011;26952;42.884;23.918;2022-08-19T02:28:12;66.10;;;62.45;;
41221;SDS011;26952;42.884;23.918;2022-08-19T02:30:38;69.43;;;65.70;;
41221;SDS011;26952;42.884;23.918;2022-08-19T02:33:06;62.08;;;58.75;;
41221;SDS011;26952;42.884;23.918;2022-08-19T02:35:31;62.30;;;58.80;;
41221;SDS011;26952;42.884;23.918;2022-08-19T02:37:56;55.58;;;52.53;;
41221;SDS011;26952;42.884;23.918;2022-08-19T02:40:47;57.17;;;54.03;;
41221;SDS011;26952;42.884;23.918;2022-08-19T02:43:16;62.95;;;59.28;;
41221;SDS011;26952;42.884;23.918;2022-08-19T02:45:42;66.90;;;63.08;;
41221;SDS011;26952;42.884;23.918;2022-08-19T02:48:07;59.60;;;56.30;;
41221;SDS011;26952;42.884;23.918;2022-08-19T02:50:36;59.83;;;56.53;;
41221;SDS011;26952;42.884;23.918;2022-08-19T02:53:03;65.70;;;61.80;;
41221;SDS011;26952;42.884;23.918;2022-08-19T02:55:28;62.25;;;58.75;;
41221;SDS011;26952;42.884;23.918;2022-08-19T02:57:54;63.55;;;59.95;;
41221;SDS011;26952;42.884;23.918;2022-08-19T03:00:19;60.67;;;57.45;;
41221;SDS011;26952;42.884;23.918;2022-08-19T03:02:45;62.67;;;59.05;;
41221;SDS011;26952;42.884;23.918;2022-08-19T03:05:11;64.53;;;60.70;;
41221;SDS011;26952;42.884;23.918;2022-08-19T03:07:37;60.08;;;56.67;;
41221;SDS011;26952;42.884;23.918;2022-08-19T03:10:03;62.90;;;59.20;;
41221;SDS011;26952;42.884;23.918;2022-08-19T03:12:29;65.75;;;62.08;;
41221;SDS011;26952;42.884;23.918;2022-08-19T03:14:54;72.57;;;68.50;;
41221;SDS011;26952;42.884;23.918;2022-08-19T03:17:20;72.57;;;68.63;;
41221;SDS011;26952;42.884;23.918;2022-08-19T03:19:46;78.30;;;74.05;;
41221;SDS011;26952;42.884;23.918;2022-08-19T03:22:11;73.80;;;69.82;;
41221;SDS011;26952;42.884;23.918;2022-08-19T03:24:37;82.20;;;77.72;;
41221;SDS011;26952;42.884;23.918;2022-08-19T03:27:03;83.00;;;78.38;;
41221;SDS011;26952;42.884;23.918;2022-08-19T03:29:31;82.78;;;78.10;;
41221;SDS011;26952;42.884;23.918;2022-08-19T03:31:57;73.70;;;69.53;;
41221;SDS011;26952;42.884;23.918;2022-08-19T03:34:26;72.22;;;68.30;;
41221;SDS011;26952;42.884;23.918;2022-08-19T03:36:55;81.95;;;77.40;;
41221;SDS011;26952;42.884;23.918;2022-08-19T03:39:22;69.35;;;65.20;;
41221;SDS011;26952;42.884;23.918;2022-08-19T03:41:49;61.33;;;57.83;;
41221;SDS011;26952;42.884;23.918;2022-08-19T03:44:17;63.03;;;58.90;;
41221;SDS011;26952;42.884;23.918;2022-08-19T03:46:46;69.70;;;65.28;;
41221;SDS011;26952;42.884;23.918;2022-08-19T03:49:14;71.45;;;66.80;;
41221;SDS011;26952;42.884;23.918;2022-08-19T03:51:40;78.05;;;73.20;;
41221;SDS011;26952;42.884;23.918;2022-08-19T03:54:08;76.43;;;71.70;;
41221;SDS011;26952;42.884;23.918;2022-08-19T03:56:36;73.88;;;69.38;;
41221;SDS011;26952;42.884;23.918;2022-08-19T03:59:03;70.88;;;66.38;;
41221;SDS011;26952;42.884;23.918;2022-08-19T04:01:30;80.90;;;76.13;;
41221;SDS011;26952;42.884;23.918;2022-08-19T04:03:56;80.55;;;75.65;;
41221;SDS011;26952;42.884;23.918;2022-08-19T04:06:24;92.90;;;87.50;;
41221;SDS011;26952;42.884;23.918;2022-08-19T04:08:52;96.30;;;90.63;;
41221;SDS011;26952;42.884;23.918;2022-08-19T04:11:26;117.90;;;111.05;;
41221;SDS011;26952;42.884;23.918;2022-08-19T04:13:57;131.60;;;123.75;;
41221;SDS011;26952;42.884;23.918;2022-08-19T04:16:23;138.88;;;130.55;;
41221;SDS011;26952;42.884;23.918;2022-08-19T04:18:50;149.20;;;139.63;;
41221;SDS011;26952;42.884;23.918;2022-08-19T04:21:17;151.98;;;142.55;;
41221;SDS011;26952;42.884;23.918;2022-08-19T04:23:44;150.73;;;141.70;;
41221;SDS011;26952;42.884;23.918;2022-08-19T04:26:13;152.93;;;143.60;;
41221;SDS011;26952;42.884;23.918;2022-08-19T04:28:44;146.10;;;137.65;;
41221;SDS011;26952;42.884;23.918;2022-08-19T04:31:13;160.88;;;151.85;;
41221;SDS011;26952;42.884;23.918;2022-08-19T04:33:41;164.13;;;154.88;;
41221;SDS011;26952;42.884;23.918;2022-08-19T04:36:06;167.93;;;158.23;;
41221;SDS011;26952;42.884;23.918;2022-08-19T04:38:33;162.68;;;153.27;;
41221;SDS011;26952;42.884;23.918;2022-08-19T04:40:58;160.05;;;150.98;;
41221;SDS011;26952;42.884;23.918;2022-08-19T04:43:42;161.90;;;152.27;;
41221;SDS011;26952;42.884;23.918;2022-08-19T04:46:13;174.30;;;164.25;;
41221;SDS011;26952;42.884;23.918;2022-08-19T04:48:39;177.57;;;167.23;;
41221;SDS011;26952;42.884;23.918;2022-08-19T04:51:06;181.95;;;171.48;;
41221;SDS011;26952;42.884;23.918;2022-08-19T04:53:33;158.88;;;150.05;;
41221;SDS011;26952;42.884;23.918;2022-08-19T04:56:04;161.55;;;152.30;;
41221;SDS011;26952;42.884;23.918;2022-08-19T04:58:35;146.43;;;138.43;;
41221;SDS011;26952;42.884;23.918;2022-08-19T05:01:03;129.88;;;122.70;;
41221;SDS011;26952;42.884;23.918;2022-08-19T05:03:29;131.82;;;124.43;;
41221;SDS011;26952;42.884;23.918;2022-08-19T05:05:58;118.68;;;112.18;;
41221;SDS011;26952;42.884;23.918;2022-08-19T05:08:29;122.07;;;115.38;;
41221;SDS011;26952;42.884;23.918;2022-08-19T05:10:55;135.73;;;128.35;;
41221;SDS011;26952;42.884;23.918;2022-08-19T05:13:22;127.90;;;120.80;;
41221;SDS011;26952;42.884;23.918;2022-08-19T05:15:57;126.40;;;119.60;;
41221;SDS011;26952;42.884;23.918;2022-08-19T05:18:23;125.68;;;118.93;;
41221;SDS011;26952;42.884;23.918;2022-08-19T05:21:08;125.75;;;118.82;;
41221;SDS011;26952;42.884;23.918;2022-08-19T05:23:53;126.68;;;119.15;;
41221;SDS011;26952;42.884;23.918;2022-08-19T05:26:19;115.82;;;109.63;;
41221;SDS011;26952;42.884;23.918;2022-08-19T05:28:44;123.32;;;116.63;;
41221;SDS011;26952;42.884;23.918;2022-08-19T05:31:10;124.88;;;117.65;;
41221;SDS011;26952;42.884;23.918;2022-08-19T05:33:35;127.35;;;119.90;;
41221;SDS011;26952;42.884;23.918;2022-08-19T05:36:01;127.05;;;119.53;;
41221;SDS011;26952;42.884;23.918;2022-08-19T05:38:27;133.20;;;125.35;;
41221;SDS011;26952;42.884;23.918;2022-08-19T05:40:54;131.20;;;123.22;;
41221;SDS011;26952;42.884;23.918;2022-08-19T05:43:20;135.52;;;127.35;;
41221;SDS011;26952;42.884;23.918;2022-08-19T05:45:46;146.07;;;137.63;;
41221;SDS011;26952;42.884;23.918;2022-08-19T05:48:12;145.65;;;137.45;;
41221;SDS011;26952;42.884;23.918;2022-08-19T05:50:38;147.30;;;139.23;;
41221;SDS011;26952;42.884;23.918;2022-08-19T05:53:05;122.05;;;115.28;;
41221;SDS011;26952;42.884;23.918;2022-08-19T05:55:31;127.10;;;120.18;;
41221;SDS011;26952;42.884;23.918;2022-08-19T05:57:56;126.95;;;120.07;;
41221;SDS011;26952;42.884;23.918;2022-08-19T06:00:22;130.88;;;123.05;;
41221;SDS011;26952;42.884;23.918;2022-08-19T06:02:48;130.85;;;123.78;;
41221;SDS011;26952;42.884;23.918;2022-08-19T06:05:13;120.22;;;113.78;;
41221;SDS011;26952;42.884;23.918;2022-08-19T06:07:39;126.80;;;119.90;;
41221;SDS011;26952;42.884;23.918;2022-08-19T06:10:06;138.10;;;130.40;;
41221;SDS011;26952;42.884;23.918;2022-08-19T06:12:34;129.43;;;122.30;;
41221;SDS011;26952;42.884;23.918;2022-08-19T06:15:00;127.07;;;119.82;;
41221;SDS011;26952;42.884;23.918;2022-08-19T06:17:28;127.30;;;120.38;;
41221;SDS011;26952;42.884;23.918;2022-08-19T06:19:55;138.82;;;131.25;;
41221;SDS011;26952;42.884;23.918;2022-08-19T06:22:20;144.35;;;136.13;;
41221;SDS011;26952;42.884;23.918;2022-08-19T06:24:46;133.70;;;126.57;;
41221;SDS011;26952;42.884;23.918;2022-08-19T06:27:11;137.13;;;129.75;;
41221;SDS011;26952;42.884;23.918;2022-08-19T06:29:37;133.55;;;126.18;;
41221;SDS011;26952;42.884;23.918;2022-08-19T06:32:03;125.55;;;118.68;;
41221;SDS011;26952;42.884;23.918;2022-08-19T06:34:30;95.90;;;90.43;;
41221;SDS011;26952;42.884;23.918;2022-08-19T06:36:57;87.63;;;82.50;;
41221;SDS011;26952;42.884;23.918;2022-08-19T06:39:29;88.88;;;83.88;;
41221;SDS011;26952;42.884;23.918;2022-08-19T06:44:25;75.35;;;71.35;;
41221;SDS011;26952;42.884;23.918;2022-08-19T06:46:54;96.28;;;91.00;;
41221;SDS011;26952;42.884;23.918;2022-08-19T06:49:20;85.82;;;81.25;;
41221;SDS011;26952;42.884;23.918;2022-08-19T06:51:46;83.97;;;79.45;;
41221;SDS011;26952;42.884;23.918;2022-08-19T06:54:14;95.85;;;90.65;;
41221;SDS011;26952;42.884;23.918;2022-08-19T06:56:40;107.30;;;101.43;;
41221;SDS011;26952;42.884;23.918;2022-08-19T06:59:08;120.57;;;113.78;;
41221;SDS011;26952;42.884;23.918;2022-08-19T07:01:46;114.40;;;107.97;;
41221;SDS011;26952;42.884;23.918;2022-08-19T07:04:15;113.68;;;107.30;;
41221;SDS011;26952;42.884;23.918;2022-08-19T07:06:46;98.53;;;93.22;;
41221;SDS011;26952;42.884;23.918;2022-08-19T07:09:13;95.35;;;89.93;;
41221;SDS011;26952;42.884;23.918;2022-08-19T07:11:44;97.97;;;92.35;;
41221;SDS011;26952;42.884;23.918;2022-08-19T07:14:11;122.65;;;115.55;;
41221;SDS011;26952;42.884;23.918;2022-08-19T07:16:37;118.60;;;112.18;;
41221;SDS011;26952;42.884;23.918;2022-08-19T07:19:02;123.03;;;116.28;;
41221;SDS011;26952;42.884;23.918;2022-08-19T07:21:28;129.85;;;122.70;;
41221;SDS011;26952;42.884;23.918;2022-08-19T07:23:56;142.75;;;134.63;;
41221;SDS011;26952;42.884;23.918;2022-08-19T07:26:28;151.13;;;142.55;;
41221;SDS011;26952;42.884;23.918;2022-08-19T07:28:56;153.57;;;145.35;;
41221;SDS011;26952;42.884;23.918;2022-08-19T07:31:24;116.38;;;110.13;;
41221;SDS011;26952;42.884;23.918;2022-08-19T07:33:51;118.55;;;112.13;;
41221;SDS011;26952;42.884;23.918;2022-08-19T07:36:22;128.50;;;121.20;;
41221;SDS011;26952;42.884;23.918;2022-08-19T07:38:57;131.85;;;124.63;;
41221;SDS011;26952;42.884;23.918;2022-08-19T07:41:24;137.73;;;130.05;;
41221;SDS011;26952;42.884;23.918;2022-08-19T07:43:53;124.97;;;117.93;;
41221;SDS011;26952;42.884;23.918;2022-08-19T07:46:19;129.90;;;122.65;;
41221;SDS011;26952;42.884;23.918;2022-08-19T07:48:46;124.47;;;117.32;;
41221;SDS011;26952;42.884;23.918;2022-08-19T07:51:14;128.65;;;121.68;;
41221;SDS011;26952;42.884;23.918;2022-08-19T07:53:44;118.22;;;111.50;;
41221;SDS011;26952;42.884;23.918;2022-08-19T07:56:12;77.43;;;73.15;;
41221;SDS011;26952;42.884;23.918;2022-08-19T07:58:40;92.93;;;88.15;;
41221;SDS011;26952;42.884;23.918;2022-08-19T08:01:07;77.07;;;72.95;;
41221;SDS011;26952;42.884;23.918;2022-08-19T08:03:35;65.88;;;61.92;;
41221;SDS011;26952;42.884;23.918;2022-08-19T08:06:20;53.35;;;50.22;;
41221;SDS011;26952;42.884;23.918;2022-08-19T08:09:05;64.45;;;60.75;;
41221;SDS011;26952;42.884;23.918;2022-08-19T08:11:42;73.68;;;68.95;;
41221;SDS011;26952;42.884;23.918;2022-08-19T08:14:49;109.63;;;102.22;;
41221;SDS011;26952;42.884;23.918;2022-08-19T08:17:09;97.03;;;90.00;;
41221;SDS011;26952;42.884;23.918;2022-08-19T08:19:35;100.70;;;93.85;;
41221;SDS011;26952;42.884;23.918;2022-08-19T08:22:01;93.20;;;87.35;;
41221;SDS011;26952;42.884;23.918;2022-08-19T08:24:28;81.60;;;77.15;;
41221;SDS011;26952;42.884;23.918;2022-08-19T08:26:57;79.07;;;74.93;;
41221;SDS011;26952;42.884;23.918;2022-08-19T08:29:24;74.75;;;70.85;;
41221;SDS011;26952;42.884;23.918;2022-08-19T08:31:50;78.20;;;73.93;;
41221;SDS011;26952;42.884;23.918;2022-08-19T08:34:16;81.35;;;77.20;;
41221;SDS011;26952;42.884;23.918;2022-08-19T08:36:43;83.13;;;78.78;;
41221;SDS011;26952;42.884;23.918;2022-08-19T08:39:11;73.55;;;69.47;;
41221;SDS011;26952;42.884;23.918;2022-08-19T08:44:25;79.03;;;74.90;;
41221;SDS011;26952;42.884;23.918;2022-08-19T08:47:01;81.57;;;77.40;;
41221;SDS011;26952;42.884;23.918;2022-08-19T08:49:32;79.78;;;75.43;;
41221;SDS011;26952;42.884;23.918;2022-08-19T08:52:07;92.47;;;87.50;;
41221;SDS011;26952;42.884;23.918;2022-08-19T08:54:45;87.15;;;82.55;;
41221;SDS011;26952;42.884;23.918;2022-08-19T08:57:14;101.03;;;95.50;;
41221;SDS011;26952;42.884;23.918;2022-08-19T08:59:45;103.18;;;97.35;;
41221;SDS011;26952;42.884;23.918;2022-08-19T09:02:17;115.68;;;109.55;;
41221;SDS011;26952;42.884;23.918;2022-08-19T09:04:43;106.45;;;100.68;;
41221;SDS011;26952;42.884;23.918;2022-08-19T09:07:22;103.95;;;98.13;;
41221;SDS011;26952;42.884;23.918;2022-08-19T09:09:50;77.35;;;73.35;;
41221;SDS011;26952;42.884;23.918;2022-08-19T09:15:20;83.35;;;79.05;;
41221;SDS011;26952;42.884;23.918;2022-08-19T09:17:53;103.35;;;97.75;;
41221;SDS011;26952;42.884;23.918;2022-08-19T09:20:20;108.22;;;102.07;;
41221;SDS011;26952;42.884;23.918;2022-08-19T09:22:48;115.03;;;108.65;;
41221;SDS011;26952;42.884;23.918;2022-08-19T09:25:18;118.15;;;111.30;;
41221;SDS011;26952;42.884;23.918;2022-08-19T09:27:49;110.43;;;104.10;;
41221;SDS011;26952;42.884;23.918;2022-08-19T09:30:16;122.07;;;114.97;;
41221;SDS011;26952;42.884;23.918;2022-08-19T09:32:54;105.05;;;99.18;;
41221;SDS011;26952;42.884;23.918;2022-08-19T09:35:20;108.35;;;102.55;;
41221;SDS011;26952;42.884;23.918;2022-08-19T09:37:48;99.20;;;93.65;;
41221;SDS011;26952;42.884;23.918;2022-08-19T09:40:14;106.35;;;100.68;;
41221;SDS011;26952;42.884;23.918;2022-08-19T09:42:41;108.85;;;102.95;;
41221;SDS011;26952;42.884;23.918;2022-08-19T09:45:08;110.28;;;104.20;;
41221;SDS011;26952;42.884;23.918;2022-08-19T09:47:35;116.88;;;110.35;;
41221;SDS011;26952;42.884;23.918;2022-08-19T09:50:03;111.57;;;105.65;;
41221;SDS011;26952;42.884;23.918;2022-08-19T09:52:30;116.57;;;110.32;;
41221;SDS011;26952;42.884;23.918;2022-08-19T09:54:56;113.47;;;107.15;;
41221;SDS011;26952;42.884;23.918;2022-08-19T09:57:21;114.60;;;108.00;;
41221;SDS011;26952;42.884;23.918;2022-08-19T09:59:46;118.85;;;112.07;;
41221;SDS011;26952;42.884;23.918;2022-08-19T10:02:12;113.95;;;107.47;;
41221;SDS011;26952;42.884;23.918;2022-08-19T10:04:38;110.38;;;104.28;;
41221;SDS011;26952;42.884;23.918;2022-08-19T10:07:22;115.30;;;108.80;;
41221;SDS011;26952;42.884;23.918;2022-08-19T10:09:48;126.65;;;119.72;;
41221;SDS011;26952;42.884;23.918;2022-08-19T10:12:13;129.65;;;122.47;;
41221;SDS011;26952;42.884;23.918;2022-08-19T10:14:40;99.65;;;94.38;;
41221;SDS011;26952;42.884;23.918;2022-08-19T10:17:06;88.65;;;83.82;;
41221;SDS011;26952;42.884;23.918;2022-08-19T10:19:31;87.88;;;83.15;;
41221;SDS011;26952;42.884;23.918;2022-08-19T10:24:30;103.10;;;97.18;;
41221;SDS011;26952;42.884;23.918;2022-08-19T10:26:56;108.43;;;102.30;;
41221;SDS011;26952;42.884;23.918;2022-08-19T10:29:21;115.45;;;109.15;;
41221;SDS011;26952;42.884;23.918;2022-08-19T10:31:47;100.32;;;95.15;;
41221;SDS011;26952;42.884;23.918;2022-08-19T10:34:13;81.32;;;76.97;;
41221;SDS011;26952;42.884;23.918;2022-08-19T10:36:38;100.18;;;94.57;;
41221;SDS011;26952;42.884;23.918;2022-08-19T10:39:05;78.05;;;73.95;;
41221;SDS011;26952;42.884;23.918;2022-08-19T10:41:34;98.60;;;93.35;;
41221;SDS011;26952;42.884;23.918;2022-08-19T10:44:07;87.45;;;83.00;;
41221;SDS011;26952;42.884;23.918;2022-08-19T10:46:38;91.03;;;86.10;;
41221;SDS011;26952;42.884;23.918;2022-08-19T10:49:07;106.35;;;100.22;;
41221;SDS011;26952;42.884;23.918;2022-08-19T10:51:34;100.28;;;94.82;;
41221;SDS011;26952;42.884;23.918;2022-08-19T10:54:18;97.30;;;92.30;;
41221;SDS011;26952;42.884;23.918;2022-08-19T10:56:44;76.63;;;72.57;;
41221;SDS011;26952;42.884;23.918;2022-08-19T10:59:28;81.63;;;76.95;;
41221;SDS011;26952;42.884;23.918;2022-08-19T11:01:58;88.15;;;83.40;;
41221;SDS011;26952;42.884;23.918;2022-08-19T11:04:25;86.80;;;82.13;;
41221;SDS011;26952;42.884;23.918;2022-08-19T11:06:51;90.50;;;85.43;;
41221;SDS011;26952;42.884;23.918;2022-08-19T11:09:20;86.97;;;82.15;;
41221;SDS011;26952;42.884;23.918;2022-08-19T11:11:49;98.95;;;92.95;;
41221;SDS011;26952;42.884;23.918;2022-08-19T11:14:16;92.90;;;87.85;;
41221;SDS011;26952;42.884;23.918;2022-08-19T11:16:46;86.07;;;81.15;;
41221;SDS011;26952;42.884;23.918;2022-08-19T11:19:12;95.72;;;90.35;;
41221;SDS011;26952;42.884;23.918;2022-08-19T11:21:40;79.93;;;75.30;;
41221;SDS011;26952;42.884;23.918;2022-08-19T11:24:10;80.67;;;76.27;;
41221;SDS011;26952;42.884;23.918;2022-08-19T11:26:39;84.82;;;80.40;;
41221;SDS011;26952;42.884;23.918;2022-08-19T11:29:06;90.07;;;85.35;;
41221;SDS011;26952;42.884;23.918;2022-08-19T11:31:36;81.55;;;77.13;;
41221;SDS011;26952;42.884;23.918;2022-08-19T11:34:04;89.53;;;84.38;;
41221;SDS011;26952;42.884;23.918;2022-08-19T11:36:32;89.35;;;84.25;;
41221;SDS011;26952;42.884;23.918;2022-08-19T11:38:58;88.35;;;83.28;;
41221;SDS011;26952;42.884;23.918;2022-08-19T11:41:24;87.20;;;82.40;;
41221;SDS011;26952;42.884;23.918;2022-08-19T11:43:51;81.85;;;77.05;;
41221;SDS011;26952;42.884;23.918;2022-08-19T11:46:20;91.65;;;86.40;;
41221;SDS011;26952;42.884;23.918;2022-08-19T11:48:47;90.97;;;85.65;;
41221;SDS011;26952;42.884;23.918;2022-08-19T11:51:16;77.38;;;72.85;;
41221;SDS011;26952;42.884;23.918;2022-08-19T11:53:44;80.00;;;75.40;;
41221;SDS011;26952;42.884;23.918;2022-08-19T11:56:10;81.75;;;77.07;;
41221;SDS011;26952;42.884;23.918;2022-08-19T11:58:36;75.95;;;71.68;;
41221;SDS011;26952;42.884;23.918;2022-08-19T12:01:05;76.60;;;71.97;;
41221;SDS011;26952;42.884;23.918;2022-08-19T12:03:32;73.38;;;69.18;;
41221;SDS011;26952;42.884;23.918;2022-08-19T12:05:58;76.15;;;71.85;;
41221;SDS011;26952;42.884;23.918;2022-08-19T12:08:27;71.88;;;67.85;;
41221;SDS011;26952;42.884;23.918;2022-08-19T12:10:53;76.43;;;72.30;;
41221;SDS011;26952;42.884;23.918;2022-08-19T12:13:18;85.18;;;80.50;;
41221;SDS011;26952;42.884;23.918;2022-08-19T12:15:44;78.05;;;73.43;;
41221;SDS011;26952;42.884;23.918;2022-08-19T12:18:12;77.03;;;72.68;;
41221;SDS011;26952;42.884;23.918;2022-08-19T12:20:39;78.35;;;73.65;;
41221;SDS011;26952;42.884;23.918;2022-08-19T12:23:06;74.25;;;70.03;;
41221;SDS011;26952;42.884;23.918;2022-08-19T12:25:34;80.40;;;76.03;;
41221;SDS011;26952;42.884;23.918;2022-08-19T12:28:00;88.20;;;83.00;;
41221;SDS011;26952;42.884;23.918;2022-08-19T12:30:26;75.07;;;70.78;;
41221;SDS011;26952;42.884;23.918;2022-08-19T12:32:52;86.07;;;81.47;;
41221;SDS011;26952;42.884;23.918;2022-08-19T12:35:18;87.30;;;82.38;;
41221;SDS011;26952;42.884;23.918;2022-08-19T12:37:47;86.13;;;81.32;;
41221;SDS011;26952;42.884;23.918;2022-08-19T12:40:14;88.60;;;83.82;;
41221;SDS011;26952;42.884;23.918;2022-08-19T12:42:41;97.93;;;92.80;;
41221;SDS011;26952;42.884;23.918;2022-08-19T12:45:10;108.43;;;102.50;;
41221;SDS011;26952;42.884;23.918;2022-08-19T12:47:38;112.45;;;106.10;;
41221;SDS011;26952;42.884;23.918;2022-08-19T12:50:04;109.90;;;104.20;;
41221;SDS011;26952;42.884;23.918;2022-08-19T12:52:35;99.32;;;94.03;;
41221;SDS011;26952;42.884;23.918;2022-08-19T12:55:06;110.38;;;104.43;;
41221;SDS011;26952;42.884;23.918;2022-08-19T12:57:33;110.93;;;104.78;;
41221;SDS011;26952;42.884;23.918;2022-08-19T13:00:03;102.03;;;96.78;;
41221;SDS011;26952;42.884;23.918;2022-08-19T13:02:31;100.07;;;94.70;;
41221;SDS011;26952;42.884;23.918;2022-08-19T13:04:57;115.90;;;109.60;;
41221;SDS011;26952;42.884;23.918;2022-08-19T13:07:23;106.07;;;100.22;;
41221;SDS011;26952;42.884;23.918;2022-08-19T13:09:50;99.40;;;94.20;;
41221;SDS011;26952;42.884;23.918;2022-08-19T13:12:16;94.55;;;89.28;;
41221;SDS011;26952;42.884;23.918;2022-08-19T13:14:43;92.65;;;87.25;;
41221;SDS011;26952;42.884;23.918;2022-08-19T13:17:15;91.00;;;85.85;;
41221;SDS011;26952;42.884;23.918;2022-08-19T13:19:41;96.70;;;91.57;;
41221;SDS011;26952;42.884;23.918;2022-08-19T13:22:06;101.00;;;95.50;;
41221;SDS011;26952;42.884;23.918;2022-08-19T13:24:32;103.80;;;98.25;;
41221;SDS011;26952;42.884;23.918;2022-08-19T13:26:58;93.35;;;88.20;;
41221;SDS011;26952;42.884;23.918;2022-08-19T13:29:24;92.30;;;87.47;;
41221;SDS011;26952;42.884;23.918;2022-08-19T13:32:08;89.63;;;84.50;;
41221;SDS011;26952;42.884;23.918;2022-08-19T13:34:52;84.85;;;80.07;;
41221;SDS011;26952;42.884;23.918;2022-08-19T13:37:17;89.20;;;84.18;;
41221;SDS011;26952;42.884;23.918;2022-08-19T13:40:03;83.90;;;79.57;;
41221;SDS011;26952;42.884;23.918;2022-08-19T13:42:28;83.32;;;78.95;;
41221;SDS011;26952;42.884;23.918;2022-08-19T13:44:54;83.25;;;78.95;;
41221;SDS011;26952;42.884;23.918;2022-08-19T13:47:20;84.65;;;80.13;;
41221;SDS011;26952;42.884;23.918;2022-08-19T13:49:45;84.53;;;80.10;;
41221;SDS011;26952;42.884;23.918;2022-08-19T13:52:11;83.75;;;79.30;;
41221;SDS011;26952;42.884;23.918;2022-08-19T13:54:36;86.93;;;81.85;;
41221;SDS011;26952;42.884;23.918;2022-08-19T13:57:02;83.50;;;78.95;;
41221;SDS011;26952;42.884;23.918;2022-08-19T13:59:27;84.15;;;79.80;;
41221;SDS011;26952;42.884;23.918;2022-08-19T14:01:57;87.75;;;83.15;;
41221;SDS011;26952;42.884;23.918;2022-08-19T14:04:24;83.20;;;78.60;;
41221;SDS011;26952;42.884;23.918;2022-08-19T14:06:49;85.65;;;81.07;;
41221;SDS011;26952;42.884;23.918;2022-08-19T14:09:15;83.53;;;79.20;;
41221;SDS011;26952;42.884;23.918;2022-08-19T14:11:40;83.03;;;78.80;;
41221;SDS011;26952;42.884;23.918;2022-08-19T14:14:05;76.30;;;72.50;;
41221;SDS011;26952;42.884;23.918;2022-08-19T14:16:31;80.75;;;76.40;;